sensor_id;sensor_type;location;lat;lon;timestamp;pressure;altitude;pressure_sealevel;temperature;humidity
41515;BME280;27247;48.020;16.720;2022-08-19T00:03:15;99087.44;;;25.20;59.05
41515;BME280;27247;48.020;16.720;2022-08-19T00:07:26;99086.88;;;24.89;61.06
41515;BME280;27247;48.020;16.720;2022-08-19T00:11:37;99087.38;;;25.01;59.16
41515;BME280;27247;48.020;16.720;2022-08-19T00:15:47;99082.75;;;25.25;58.39
41515;BME280;27247;48.020;16.720;2022-08-19T00:19:57;99064.84;;;25.57;57.00
41515;BME280;27247;48.020;16.720;2022-08-19T00:24:09;99065.59;;;25.62;57.27
41515;BME280;27247;48.020;16.720;2022-08-19T00:28:19;99062.25;;;25.70;57.18
41515;BME280;27247;48.020;16.720;2022-08-19T00:32:30;99067.13;;;25.50;58.78
41515;BME280;27247;48.020;16.720;2022-08-19T00:36:41;99061.31;;;25.32;59.72
41515;BME280;27247;48.020;16.720;2022-08-19T00:40:51;99056.66;;;25.09;60.64
41515;BME280;27247;48.020;16.720;2022-08-19T00:45:10;99063.75;;;25.10;62.01
41515;BME280;27247;48.020;16.720;2022-08-19T00:53:44;99058.84;;;24.44;63.26
41515;BME280;27247;48.020;16.720;2022-08-19T00:57:59;99058.97;;;23.74;65.52
41515;BME280;27247;48.020;16.720;2022-08-19T01:02:11;99055.06;;;23.26;67.16
41515;BME280;27247;48.020;16.720;2022-08-19T01:06:22;99051.84;;;23.04;67.87
41515;BME280;27247;48.020;16.720;2022-08-19T01:10:37;99045.88;;;22.97;68.50
41515;BME280;27247;48.020;16.720;2022-08-19T01:14:49;99055.41;;;22.99;68.40
41515;BME280;27247;48.020;16.720;2022-08-19T01:19:01;99046.69;;;22.87;68.42
41515;BME280;27247;48.020;16.720;2022-08-19T01:23:13;99049.41;;;22.72;68.73
41515;BME280;27247;48.020;16.720;2022-08-19T01:27:23;99051.06;;;22.42;69.86
41515;BME280;27247;48.020;16.720;2022-08-19T01:31:34;99056.19;;;22.08;70.85
41515;BME280;27247;48.020;16.720;2022-08-19T01:35:45;99056.13;;;21.93;71.35
41515;BME280;27247;48.020;16.720;2022-08-19T01:39:55;99066.97;;;21.83;71.51
41515;BME280;27247;48.020;16.720;2022-08-19T01:44:08;99083.34;;;21.88;71.46
41515;BME280;27247;48.020;16.720;2022-08-19T01:48:18;99090.00;;;21.60;72.05
41515;BME280;27247;48.020;16.720;2022-08-19T01:52:29;99121.28;;;21.62;72.21
41515;BME280;27247;48.020;16.720;2022-08-19T01:56:39;99094.06;;;21.52;72.04
41515;BME280;27247;48.020;16.720;2022-08-19T02:00:49;99095.94;;;21.47;72.23
41515;BME280;27247;48.020;16.720;2022-08-19T02:05:00;99094.56;;;21.44;72.38
41515;BME280;27247;48.020;16.720;2022-08-19T02:09:10;99095.66;;;21.48;72.18
41515;BME280;27247;48.020;16.720;2022-08-19T02:13:21;99106.81;;;21.47;72.38
41515;BME280;27247;48.020;16.720;2022-08-19T02:17:31;99115.50;;;21.49;72.49
41515;BME280;27247;48.020;16.720;2022-08-19T02:21:41;99113.34;;;21.51;72.35
41515;BME280;27247;48.020;16.720;2022-08-19T02:25:53;99121.81;;;21.59;72.20
41515;BME280;27247;48.020;16.720;2022-08-19T02:30:06;99128.56;;;21.47;72.58
41515;BME280;27247;48.020;16.720;2022-08-19T02:34:17;99129.41;;;21.52;72.46
41515;BME280;27247;48.020;16.720;2022-08-19T02:38:27;99129.72;;;21.66;71.87
41515;BME280;27247;48.020;16.720;2022-08-19T02:42:38;99128.13;;;21.75;71.69
41515;BME280;27247;48.020;16.720;2022-08-19T02:46:50;99131.34;;;21.62;72.10
41515;BME280;27247;48.020;16.720;2022-08-19T02:51:01;99123.47;;;21.65;72.00
41515;BME280;27247;48.020;16.720;2022-08-19T02:55:11;99112.03;;;21.58;72.45
41515;BME280;27247;48.020;16.720;2022-08-19T02:59:21;99114.75;;;21.58;72.33
41515;BME280;27247;48.020;16.720;2022-08-19T03:03:32;99132.19;;;21.67;72.16
41515;BME280;27247;48.020;16.720;2022-08-19T03:07:42;99134.66;;;21.74;72.09
41515;BME280;27247;48.020;16.720;2022-08-19T03:11:53;99133.72;;;21.48;72.38
41515;BME280;27247;48.020;16.720;2022-08-19T03:16:05;99130.44;;;21.46;72.71
41515;BME280;27247;48.020;16.720;2022-08-19T03:20:15;99146.22;;;21.44;73.16
41515;BME280;27247;48.020;16.720;2022-08-19T03:24:26;99148.13;;;21.44;73.45
41515;BME280;27247;48.020;16.720;2022-08-19T03:28:36;99154.34;;;21.39;73.66
41515;BME280;27247;48.020;16.720;2022-08-19T03:32:47;99148.63;;;21.41;73.59
41515;BME280;27247;48.020;16.720;2022-08-19T03:37:03;99153.00;;;21.42;73.64
41515;BME280;27247;48.020;16.720;2022-08-19T03:41:26;99176.13;;;21.44;73.61
41515;BME280;27247;48.020;16.720;2022-08-19T03:45:37;99180.56;;;21.60;72.90
41515;BME280;27247;48.020;16.720;2022-08-19T03:49:47;99169.63;;;21.50;73.15
41515;BME280;27247;48.020;16.720;2022-08-19T03:54:00;99170.69;;;21.44;73.41
41515;BME280;27247;48.020;16.720;2022-08-19T03:58:11;99171.19;;;21.36;73.82
41515;BME280;27247;48.020;16.720;2022-08-19T04:02:21;99170.06;;;21.32;73.75
41515;BME280;27247;48.020;16.720;2022-08-19T04:06:33;99170.63;;;21.34;73.81
41515;BME280;27247;48.020;16.720;2022-08-19T04:10:44;99173.75;;;21.21;74.80
41515;BME280;27247;48.020;16.720;2022-08-19T04:14:54;99165.56;;;21.16;75.15
41515;BME280;27247;48.020;16.720;2022-08-19T04:19:05;99173.66;;;21.06;75.68
41515;BME280;27247;48.020;16.720;2022-08-19T04:23:16;99185.66;;;21.15;75.30
41515;BME280;27247;48.020;16.720;2022-08-19T04:27:26;99184.97;;;21.24;75.63
41515;BME280;27247;48.020;16.720;2022-08-19T04:31:37;99181.50;;;21.34;75.32
41515;BME280;27247;48.020;16.720;2022-08-19T04:35:50;99184.13;;;21.24;75.77
41515;BME280;27247;48.020;16.720;2022-08-19T04:40:00;99197.06;;;21.12;76.54
41515;BME280;27247;48.020;16.720;2022-08-19T04:44:31;99196.13;;;21.28;76.32
41515;BME280;27247;48.020;16.720;2022-08-19T04:48:42;99210.09;;;21.42;77.05
41515;BME280;27247;48.020;16.720;2022-08-19T04:52:53;99217.53;;;21.56;76.85
41515;BME280;27247;48.020;16.720;2022-08-19T04:57:09;99217.59;;;21.72;76.38
41515;BME280;27247;48.020;16.720;2022-08-19T05:01:32;99212.84;;;21.89;75.99
41515;BME280;27247;48.020;16.720;2022-08-19T05:05:44;99216.41;;;21.94;75.97
41515;BME280;27247;48.020;16.720;2022-08-19T05:09:55;99203.38;;;22.02;75.57
41515;BME280;27247;48.020;16.720;2022-08-19T05:14:06;99204.00;;;22.14;75.02
41515;BME280;27247;48.020;16.720;2022-08-19T05:18:17;99208.38;;;22.25;74.48
41515;BME280;27247;48.020;16.720;2022-08-19T05:22:47;99213.59;;;22.42;73.93
41515;BME280;27247;48.020;16.720;2022-08-19T05:26:57;99219.63;;;22.59;72.66
41515;BME280;27247;48.020;16.720;2022-08-19T05:31:07;99226.16;;;22.53;72.35
41515;BME280;27247;48.020;16.720;2022-08-19T05:35:18;99233.28;;;22.74;72.84
41515;BME280;27247;48.020;16.720;2022-08-19T05:39:30;99237.56;;;22.40;74.93
41515;BME280;27247;48.020;16.720;2022-08-19T05:43:42;99244.66;;;22.41;74.75
41515;BME280;27247;48.020;16.720;2022-08-19T05:47:52;99257.22;;;22.62;73.84
41515;BME280;27247;48.020;16.720;2022-08-19T05:52:04;99279.31;;;22.71;74.74
41515;BME280;27247;48.020;16.720;2022-08-19T05:56:16;99281.88;;;22.92;74.93
41515;BME280;27247;48.020;16.720;2022-08-19T06:00:27;99309.16;;;23.08;75.11
41515;BME280;27247;48.020;16.720;2022-08-19T06:04:39;99311.34;;;23.21;74.72
41515;BME280;27247;48.020;16.720;2022-08-19T06:08:52;99312.47;;;23.40;74.18
41515;BME280;27247;48.020;16.720;2022-08-19T06:13:03;99324.50;;;23.54;74.94
41515;BME280;27247;48.020;16.720;2022-08-19T06:17:15;99332.41;;;23.66;74.42
41515;BME280;27247;48.020;16.720;2022-08-19T06:21:28;99341.94;;;23.89;74.85
41515;BME280;27247;48.020;16.720;2022-08-19T06:25:39;99359.41;;;24.08;75.46
41515;BME280;27247;48.020;16.720;2022-08-19T06:29:50;99359.09;;;24.20;74.85
41515;BME280;27247;48.020;16.720;2022-08-19T06:34:03;99363.22;;;24.28;74.72
41515;BME280;27247;48.020;16.720;2022-08-19T06:38:14;99362.63;;;24.36;75.21
41515;BME280;27247;48.020;16.720;2022-08-19T06:42:24;99349.47;;;24.53;75.00
41515;BME280;27247;48.020;16.720;2022-08-19T06:46:36;99331.63;;;24.71;74.41
41515;BME280;27247;48.020;16.720;2022-08-19T06:50:46;99330.19;;;24.83;73.41
41515;BME280;27247;48.020;16.720;2022-08-19T06:55:01;99344.13;;;24.97;72.90
41515;BME280;27247;48.020;16.720;2022-08-19T06:59:15;99344.31;;;25.11;72.79
41515;BME280;27247;48.020;16.720;2022-08-19T07:03:29;99331.06;;;25.28;72.52
41515;BME280;27247;48.020;16.720;2022-08-19T07:07:41;99340.75;;;25.50;72.19
41515;BME280;27247;48.020;16.720;2022-08-19T07:11:53;99338.72;;;25.70;71.04
41515;BME280;27247;48.020;16.720;2022-08-19T07:16:08;99334.19;;;25.85;70.46
41515;BME280;27247;48.020;16.720;2022-08-19T07:20:19;99325.06;;;25.94;70.01
41515;BME280;27247;48.020;16.720;2022-08-19T07:24:29;99316.28;;;25.97;69.66
41515;BME280;27247;48.020;16.720;2022-08-19T07:28:40;99306.94;;;26.03;69.42
41515;BME280;27247;48.020;16.720;2022-08-19T07:32:51;99300.34;;;26.04;69.28
41515;BME280;27247;48.020;16.720;2022-08-19T07:37:06;99294.75;;;26.15;67.95
41515;BME280;27247;48.020;16.720;2022-08-19T07:41:19;99282.41;;;26.41;67.85
41515;BME280;27247;48.020;16.720;2022-08-19T07:45:31;99280.22;;;26.62;67.33
41515;BME280;27247;48.020;16.720;2022-08-19T07:49:42;99279.63;;;26.84;66.16
41515;BME280;27247;48.020;16.720;2022-08-19T07:53:53;99273.97;;;26.99;65.84
41515;BME280;27247;48.020;16.720;2022-08-19T07:58:04;99271.00;;;27.14;65.51
41515;BME280;27247;48.020;16.720;2022-08-19T08:02:14;99273.56;;;27.43;64.59
41515;BME280;27247;48.020;16.720;2022-08-19T08:06:25;99255.88;;;27.49;64.04
41515;BME280;27247;48.020;16.720;2022-08-19T08:10:54;99244.66;;;27.64;63.98
41515;BME280;27247;48.020;16.720;2022-08-19T08:15:10;99254.38;;;28.03;64.14
41515;BME280;27247;48.020;16.720;2022-08-19T08:19:23;99262.25;;;28.37;62.81
41515;BME280;27247;48.020;16.720;2022-08-19T08:23:33;99263.13;;;28.60;61.50
41515;BME280;27247;48.020;16.720;2022-08-19T08:27:44;99273.28;;;28.87;61.51
41515;BME280;27247;48.020;16.720;2022-08-19T08:31:56;99288.97;;;29.22;58.73
41515;BME280;27247;48.020;16.720;2022-08-19T08:36:08;99297.75;;;29.11;60.21
41515;BME280;27247;48.020;16.720;2022-08-19T08:40:39;99298.38;;;29.21;59.77
41515;BME280;27247;48.020;16.720;2022-08-19T08:44:59;99296.84;;;29.51;58.88
41515;BME280;27247;48.020;16.720;2022-08-19T08:50:06;99294.97;;;29.92;58.46
41515;BME280;27247;48.020;16.720;2022-08-19T08:53:51;99303.50;;;30.12;56.92
41515;BME280;27247;48.020;16.720;2022-08-19T08:58:09;99312.16;;;30.20;56.60
41515;BME280;27247;48.020;16.720;2022-08-19T09:02:24;99301.88;;;30.51;55.28
41515;BME280;27247;48.020;16.720;2022-08-19T09:10:53;99276.66;;;30.92;54.39
41515;BME280;27247;48.020;16.720;2022-08-19T09:15:10;99269.22;;;31.19;53.50
41515;BME280;27247;48.020;16.720;2022-08-19T09:19:22;99291.31;;;31.19;54.33
41515;BME280;27247;48.020;16.720;2022-08-19T09:23:32;99289.00;;;31.12;52.80
41515;BME280;27247;48.020;16.720;2022-08-19T09:27:43;99271.69;;;31.29;52.51
41515;BME280;27247;48.020;16.720;2022-08-19T09:31:53;99275.75;;;31.23;53.32
41515;BME280;27247;48.020;16.720;2022-08-19T09:36:09;99261.22;;;31.60;51.54
41515;BME280;27247;48.020;16.720;2022-08-19T09:40:20;99252.59;;;31.70;52.27
41515;BME280;27247;48.020;16.720;2022-08-19T09:44:30;99253.09;;;31.72;52.58
41515;BME280;27247;48.020;16.720;2022-08-19T09:48:41;99249.41;;;31.98;51.98
41515;BME280;27247;48.020;16.720;2022-08-19T09:52:52;99242.50;;;32.51;51.79
41515;BME280;27247;48.020;16.720;2022-08-19T09:57:04;99245.22;;;32.59;50.69
41515;BME280;27247;48.020;16.720;2022-08-19T10:01:22;99245.50;;;33.08;50.62
41515;BME280;27247;48.020;16.720;2022-08-19T10:05:33;99238.84;;;33.30;49.80
41515;BME280;27247;48.020;16.720;2022-08-19T10:09:58;99251.81;;;33.38;49.81
41515;BME280;27247;48.020;16.720;2022-08-19T10:14:09;99254.56;;;33.38;49.45
41515;BME280;27247;48.020;16.720;2022-08-19T10:18:21;99255.31;;;33.92;48.63
41515;BME280;27247;48.020;16.720;2022-08-19T10:22:31;99255.47;;;33.63;47.88
41515;BME280;27247;48.020;16.720;2022-08-19T10:26:41;99276.78;;;33.09;49.48
41515;BME280;27247;48.020;16.720;2022-08-19T10:30:54;99278.81;;;33.20;48.29
41515;BME280;27247;48.020;16.720;2022-08-19T10:35:05;99278.78;;;32.28;50.15
41515;BME280;27247;48.020;16.720;2022-08-19T10:39:18;99280.75;;;31.38;51.82
41515;BME280;27247;48.020;16.720;2022-08-19T10:43:29;99293.53;;;31.68;51.64
41515;BME280;27247;48.020;16.720;2022-08-19T10:47:39;99309.00;;;31.69;51.85
41515;BME280;27247;48.020;16.720;2022-08-19T10:51:50;99324.56;;;31.13;52.58
41515;BME280;27247;48.020;16.720;2022-08-19T10:56:19;99329.88;;;30.67;53.65
41515;BME280;27247;48.020;16.720;2022-08-19T11:00:56;99313.34;;;30.75;54.84
41515;BME280;27247;48.020;16.720;2022-08-19T11:05:08;99307.66;;;30.72;57.14
41515;BME280;27247;48.020;16.720;2022-08-19T11:09:23;99297.91;;;30.83;62.05
41515;BME280;27247;48.020;16.720;2022-08-19T11:13:40;99289.31;;;30.28;65.38
41515;BME280;27247;48.020;16.720;2022-08-19T11:17:51;99281.88;;;29.44;66.38
41515;BME280;27247;48.020;16.720;2022-08-19T11:22:08;99305.91;;;28.52;69.35
41515;BME280;27247;48.020;16.720;2022-08-19T11:26:20;99320.41;;;27.65;73.52
41515;BME280;27247;48.020;16.720;2022-08-19T11:30:31;99308.88;;;27.82;72.32
41515;BME280;27247;48.020;16.720;2022-08-19T11:34:43;99294.47;;;28.73;72.24
41515;BME280;27247;48.020;16.720;2022-08-19T11:38:54;99283.28;;;29.19;71.51
41515;BME280;27247;48.020;16.720;2022-08-19T11:43:04;99271.38;;;29.77;67.29
41515;BME280;27247;48.020;16.720;2022-08-19T11:47:15;99272.84;;;29.52;65.12
41515;BME280;27247;48.020;16.720;2022-08-19T11:51:26;99261.91;;;29.16;58.69
41515;BME280;27247;48.020;16.720;2022-08-19T11:55:38;99260.59;;;29.00;59.77
41515;BME280;27247;48.020;16.720;2022-08-19T11:59:52;99251.53;;;28.99;59.19
41515;BME280;27247;48.020;16.720;2022-08-19T12:04:03;99259.53;;;29.09;60.04
41515;BME280;27247;48.020;16.720;2022-08-19T12:08:16;99283.19;;;29.10;59.42
41515;BME280;27247;48.020;16.720;2022-08-19T12:12:27;99286.97;;;29.14;57.96
41515;BME280;27247;48.020;16.720;2022-08-19T12:16:38;99292.25;;;29.69;56.86
41515;BME280;27247;48.020;16.720;2022-08-19T12:20:50;99288.19;;;29.67;57.65
41515;BME280;27247;48.020;16.720;2022-08-19T12:25:01;99295.53;;;29.49;59.18
41515;BME280;27247;48.020;16.720;2022-08-19T12:29:11;99317.47;;;29.04;60.70
41515;BME280;27247;48.020;16.720;2022-08-19T12:33:22;99328.09;;;28.56;58.67
41515;BME280;27247;48.020;16.720;2022-08-19T12:37:34;99314.16;;;28.25;61.62
41515;BME280;27247;48.020;16.720;2022-08-19T12:41:45;99303.59;;;27.99;62.14
41515;BME280;27247;48.020;16.720;2022-08-19T12:45:55;99312.03;;;27.89;63.34
41515;BME280;27247;48.020;16.720;2022-08-19T12:50:07;99308.56;;;27.84;64.14
41515;BME280;27247;48.020;16.720;2022-08-19T12:54:18;99311.88;;;27.67;64.69
41515;BME280;27247;48.020;16.720;2022-08-19T12:58:30;99302.75;;;27.53;64.76
41515;BME280;27247;48.020;16.720;2022-08-19T13:02:43;99307.47;;;27.33;65.70
41515;BME280;27247;48.020;16.720;2022-08-19T13:06:54;99305.13;;;27.08;66.46
41515;BME280;27247;48.020;16.720;2022-08-19T13:11:12;99314.75;;;27.06;67.53
41515;BME280;27247;48.020;16.720;2022-08-19T13:15:23;99297.81;;;26.98;66.93
41515;BME280;27247;48.020;16.720;2022-08-19T13:19:36;99282.00;;;26.90;68.15
41515;BME280;27247;48.020;16.720;2022-08-19T13:23:46;99282.53;;;26.73;68.79
41515;BME280;27247;48.020;16.720;2022-08-19T13:27:57;99298.28;;;26.63;70.40
41515;BME280;27247;48.020;16.720;2022-08-19T13:32:08;99303.81;;;26.39;74.46
41515;BME280;27247;48.020;16.720;2022-08-19T13:36:42;99302.63;;;25.92;78.26
41515;BME280;27247;48.020;16.720;2022-08-19T13:40:54;99276.44;;;26.10;79.34
41515;BME280;27247;48.020;16.720;2022-08-19T13:45:06;99306.78;;;25.56;77.91
41515;BME280;27247;48.020;16.720;2022-08-19T13:49:16;99299.16;;;25.53;81.80
41515;BME280;27247;48.020;16.720;2022-08-19T13:53:27;99293.28;;;25.64;81.18
41515;BME280;27247;48.020;16.720;2022-08-19T13:57:38;99284.72;;;25.42;79.20
41515;BME280;27247;48.020;16.720;2022-08-19T14:01:52;99284.06;;;25.55;78.16
41515;BME280;27247;48.020;16.720;2022-08-19T14:06:03;99261.66;;;25.82;78.12
41515;BME280;27247;48.020;16.720;2022-08-19T14:10:14;99248.31;;;26.04;75.95
41515;BME280;27247;48.020;16.720;2022-08-19T14:14:25;99248.19;;;26.15;74.77
41515;BME280;27247;48.020;16.720;2022-08-19T14:18:35;99229.06;;;26.09;75.31
41515;BME280;27247;48.020;16.720;2022-08-19T14:22:47;99214.28;;;26.11;75.79
41515;BME280;27247;48.020;16.720;2022-08-19T14:26:58;99211.81;;;25.85;74.98
41515;BME280;27247;48.020;16.720;2022-08-19T14:31:11;99187.69;;;25.87;74.37
41515;BME280;27247;48.020;16.720;2022-08-19T14:35:22;99178.66;;;25.87;73.35
41515;BME280;27247;48.020;16.720;2022-08-19T14:39:32;99164.63;;;25.93;74.12
41515;BME280;27247;48.020;16.720;2022-08-19T14:43:44;99173.25;;;26.05;74.24
41515;BME280;27247;48.020;16.720;2022-08-19T14:47:56;99178.72;;;26.05;73.86
41515;BME280;27247;48.020;16.720;2022-08-19T14:52:06;99170.53;;;26.24;72.56
41515;BME280;27247;48.020;16.720;2022-08-19T14:56:21;99153.31;;;26.61;70.81
41515;BME280;27247;48.020;16.720;2022-08-19T15:00:32;99157.44;;;26.78;68.18
41515;BME280;27247;48.020;16.720;2022-08-19T15:04:42;99161.22;;;27.33;67.85
41515;BME280;27247;48.020;16.720;2022-08-19T15:08:54;99157.69;;;27.60;65.05
41515;BME280;27247;48.020;16.720;2022-08-19T15:13:04;99142.03;;;27.88;63.96
41515;BME280;27247;48.020;16.720;2022-08-19T15:17:16;99151.50;;;28.09;61.17
41515;BME280;27247;48.020;16.720;2022-08-19T15:21:28;99153.13;;;27.96;58.79
41515;BME280;27247;48.020;16.720;2022-08-19T15:25:39;99151.38;;;28.01;59.36
41515;BME280;27247;48.020;16.720;2022-08-19T15:29:51;99161.28;;;28.15;58.95
41515;BME280;27247;48.020;16.720;2022-08-19T15:34:02;99167.78;;;28.19;58.53
41515;BME280;27247;48.020;16.720;2022-08-19T15:38:13;99178.25;;;27.90;59.87
41515;BME280;27247;48.020;16.720;2022-08-19T15:42:24;99175.13;;;28.24;61.24
41515;BME280;27247;48.020;16.720;2022-08-19T15:46:39;99164.03;;;28.29;60.28
41515;BME280;27247;48.020;16.720;2022-08-19T15:50:50;99174.78;;;28.39;60.63
41515;BME280;27247;48.020;16.720;2022-08-19T15:55:00;99177.63;;;28.48;59.82
41515;BME280;27247;48.020;16.720;2022-08-19T15:59:12;99179.97;;;28.41;59.24
41515;BME280;27247;48.020;16.720;2022-08-19T16:03:41;99158.53;;;28.29;60.18
41515;BME280;27247;48.020;16.720;2022-08-19T16:08:10;99165.16;;;28.28;58.15
41515;BME280;27247;48.020;16.720;2022-08-19T16:12:21;99161.97;;;28.21;58.08
41515;BME280;27247;48.020;16.720;2022-08-19T16:16:36;99171.25;;;28.11;59.55
41515;BME280;27247;48.020;16.720;2022-08-19T16:20:47;99165.84;;;28.06;60.72
41515;BME280;27247;48.020;16.720;2022-08-19T16:24:58;99170.41;;;27.97;60.99
41515;BME280;27247;48.020;16.720;2022-08-19T16:29:09;99180.19;;;27.89;60.59
41515;BME280;27247;48.020;16.720;2022-08-19T16:33:19;99185.06;;;27.92;60.80
41515;BME280;27247;48.020;16.720;2022-08-19T16:37:30;99193.63;;;27.91;60.97
41515;BME280;27247;48.020;16.720;2022-08-19T16:41:41;99192.50;;;27.92;60.79
41515;BME280;27247;48.020;16.720;2022-08-19T16:45:52;99208.28;;;27.86;60.13
41515;BME280;27247;48.020;16.720;2022-08-19T16:50:03;99198.28;;;27.90;59.55
41515;BME280;27247;48.020;16.720;2022-08-19T16:54:16;99179.69;;;27.87;60.26
41515;BME280;27247;48.020;16.720;2022-08-19T16:58:28;99176.63;;;27.89;60.20
41515;BME280;27247;48.020;16.720;2022-08-19T17:02:40;99173.78;;;27.80;60.83
41515;BME280;27247;48.020;16.720;2022-08-19T17:06:50;99171.09;;;27.48;60.89
41515;BME280;27247;48.020;16.720;2022-08-19T17:11:00;99168.38;;;27.15;61.37
41515;BME280;27247;48.020;16.720;2022-08-19T17:15:12;99177.06;;;26.85;61.91
41515;BME280;27247;48.020;16.720;2022-08-19T17:19:22;99163.91;;;26.68;62.33
41515;BME280;27247;48.020;16.720;2022-08-19T17:23:33;99158.28;;;26.40;65.33
41515;BME280;27247;48.020;16.720;2022-08-19T17:27:43;99155.06;;;26.15;66.75
41515;BME280;27247;48.020;16.720;2022-08-19T17:31:54;99140.25;;;25.92;67.25
41515;BME280;27247;48.020;16.720;2022-08-19T17:36:04;99157.34;;;25.84;67.90
41515;BME280;27247;48.020;16.720;2022-08-19T17:40:16;99179.66;;;25.72;68.31
41515;BME280;27247;48.020;16.720;2022-08-19T17:44:27;99181.41;;;25.58;68.93
41515;BME280;27247;48.020;16.720;2022-08-19T17:48:37;99183.28;;;25.62;69.13
41515;BME280;27247;48.020;16.720;2022-08-19T17:52:48;99196.69;;;25.64;69.10
41515;BME280;27247;48.020;16.720;2022-08-19T17:57:01;99195.97;;;25.53;68.90
41515;BME280;27247;48.020;16.720;2022-08-19T18:01:13;99207.25;;;25.46;69.04
41515;BME280;27247;48.020;16.720;2022-08-19T18:05:26;99216.03;;;25.43;69.07
41515;BME280;27247;48.020;16.720;2022-08-19T18:09:39;99208.91;;;25.48;69.32
41515;BME280;27247;48.020;16.720;2022-08-19T18:13:50;99188.22;;;25.36;69.75
41515;BME280;27247;48.020;16.720;2022-08-19T18:18:01;99191.47;;;25.38;69.61
41515;BME280;27247;48.020;16.720;2022-08-19T18:22:29;99196.03;;;25.48;69.96
41515;BME280;27247;48.020;16.720;2022-08-19T18:26:40;99190.94;;;25.36;70.38
41515;BME280;27247;48.020;16.720;2022-08-19T18:30:51;99207.31;;;25.12;71.05
41515;BME280;27247;48.020;16.720;2022-08-19T18:35:05;99219.69;;;24.95;71.95
41515;BME280;27247;48.020;16.720;2022-08-19T18:39:18;99204.41;;;24.99;72.37
41515;BME280;27247;48.020;16.720;2022-08-19T18:43:48;99206.91;;;24.85;72.20
41515;BME280;27247;48.020;16.720;2022-08-19T18:48:17;99187.53;;;24.81;72.82
41515;BME280;27247;48.020;16.720;2022-08-19T18:52:46;99215.19;;;24.75;74.79
41515;BME280;27247;48.020;16.720;2022-08-19T18:56:57;99226.22;;;24.60;77.18
41515;BME280;27247;48.020;16.720;2022-08-19T19:01:13;99235.66;;;24.33;77.83
41515;BME280;27247;48.020;16.720;2022-08-19T19:05:24;99239.88;;;23.95;78.15
41515;BME280;27247;48.020;16.720;2022-08-19T19:09:35;99231.38;;;24.02;77.96
41515;BME280;27247;48.020;16.720;2022-08-19T19:13:46;99241.72;;;24.10;77.83
41515;BME280;27247;48.020;16.720;2022-08-19T19:17:57;99258.41;;;23.98;78.28
41515;BME280;27247;48.020;16.720;2022-08-19T19:22:11;99273.44;;;23.80;79.07
41515;BME280;27247;48.020;16.720;2022-08-19T19:26:21;99274.50;;;23.89;79.58
41515;BME280;27247;48.020;16.720;2022-08-19T19:30:32;99293.34;;;23.86;80.08
41515;BME280;27247;48.020;16.720;2022-08-19T19:34:42;99317.94;;;23.76;80.64
41515;BME280;27247;48.020;16.720;2022-08-19T19:38:53;99314.63;;;23.48;82.69
41515;BME280;27247;48.020;16.720;2022-08-19T19:43:03;99296.91;;;23.36;83.33
41515;BME280;27247;48.020;16.720;2022-08-19T19:47:15;99331.81;;;23.34;84.34
41515;BME280;27247;48.020;16.720;2022-08-19T19:51:28;99364.78;;;23.12;84.65
41515;BME280;27247;48.020;16.720;2022-08-19T19:55:38;99388.22;;;23.13;84.84
41515;BME280;27247;48.020;16.720;2022-08-19T19:59:50;99417.31;;;22.92;86.43
41515;BME280;27247;48.020;16.720;2022-08-19T20:04:00;99424.72;;;23.07;88.25
41515;BME280;27247;48.020;16.720;2022-08-19T20:08:11;99432.94;;;23.12;90.09
41515;BME280;27247;48.020;16.720;2022-08-19T20:12:40;99442.69;;;22.98;91.36
41515;BME280;27247;48.020;16.720;2022-08-19T20:16:51;99449.22;;;22.97;92.10
41515;BME280;27247;48.020;16.720;2022-08-19T20:21:02;99474.50;;;22.87;93.11
41515;BME280;27247;48.020;16.720;2022-08-19T20:25:14;99456.81;;;22.10;95.94
41515;BME280;27247;48.020;16.720;2022-08-19T20:29:25;99441.84;;;21.54;99.76
41515;BME280;27247;48.020;16.720;2022-08-19T20:33:36;99461.41;;;21.29;100.00
41515;BME280;27247;48.020;16.720;2022-08-19T20:37:47;99464.13;;;21.29;100.00
41515;BME280;27247;48.020;16.720;2022-08-19T20:41:58;99437.47;;;21.26;100.00
41515;BME280;27247;48.020;16.720;2022-08-19T20:46:09;99421.25;;;21.36;100.00
41515;BME280;27247;48.020;16.720;2022-08-19T20:50:20;99411.00;;;21.43;100.00
41515;BME280;27247;48.020;16.720;2022-08-19T20:54:31;99413.38;;;21.34;100.00
41515;BME280;27247;48.020;16.720;2022-08-19T20:58:42;99444.59;;;21.32;100.00
41515;BME280;27247;48.020;16.720;2022-08-19T21:02:52;99457.16;;;21.38;100.00
41515;BME280;27247;48.020;16.720;2022-08-19T21:07:02;99460.03;;;21.53;100.00
41515;BME280;27247;48.020;16.720;2022-08-19T21:11:13;99467.75;;;21.61;100.00
41515;BME280;27247;48.020;16.720;2022-08-19T21:15:23;99451.53;;;21.72;100.00
41515;BME280;27247;48.020;16.720;2022-08-19T21:19:34;99403.50;;;21.55;100.00
41515;BME280;27247;48.020;16.720;2022-08-19T21:23:44;99382.56;;;21.56;100.00
41515;BME280;27247;48.020;16.720;2022-08-19T21:27:55;99371.00;;;21.39;100.00
41515;BME280;27247;48.020;16.720;2022-08-19T21:32:05;99404.59;;;21.06;100.00
41515;BME280;27247;48.020;16.720;2022-08-19T21:36:16;99418.69;;;21.02;100.00
41515;BME280;27247;48.020;16.720;2022-08-19T21:40:26;99407.50;;;20.99;100.00
41515;BME280;27247;48.020;16.720;2022-08-19T21:44:37;99411.16;;;21.10;100.00
41515;BME280;27247;48.020;16.720;2022-08-19T21:48:49;99420.91;;;21.27;100.00
41515;BME280;27247;48.020;16.720;2022-08-19T21:53:00;99415.47;;;21.27;100.00
41515;BME280;27247;48.020;16.720;2022-08-19T21:57:10;99420.75;;;21.39;100.00
41515;BME280;27247;48.020;16.720;2022-08-19T22:01:21;99424.03;;;21.41;100.00
41515;BME280;27247;48.020;16.720;2022-08-19T22:05:32;99434.13;;;21.46;100.00
41515;BME280;27247;48.020;16.720;2022-08-19T22:09:44;99422.22;;;21.52;100.00